Time;durP1;ratioP1;P1;durP2;ratioP2;P2;SDS_P1;SDS_P2;PMS_P1;PMS_P2;Temp;Humidity;BMP_temperature;BMP_pressure;BME280_temperature;BME280_humidity;BME280_pressure;Samples;Min_cycle;Max_cycle;Signal;HPM_P1;HPM_P2
2023/12/02 00:00:05;;;;;;;2.80;2.70;;;15.00;66.10;;;;;;5077506;28;43417;-69
2023/12/02 00:02:38;;;;;;;2.50;2.50;;;15.10;65.40;;;;;;5075788;28;43437;-69
2023/12/02 00:05:07;;;;;;;2.67;2.57;;;15.10;65.60;;;;;;5078435;28;43497;-69
2023/12/02 00:07:35;;;;;;;2.73;2.63;;;15.10;65.60;;;;;;5079059;28;43995;-69
2023/12/02 00:10:03;;;;;;;2.60;2.50;;;15.00;65.50;;;;;;5073683;28;43490;-69
2023/12/02 00:12:32;;;;;;;2.60;2.50;;;15.00;65.50;;;;;;5076602;28;43881;-68
2023/12/02 00:15:00;;;;;;;2.83;2.73;;;15.00;65.80;;;;;;5082276;28;43487;-66
2023/12/02 00:17:28;;;;;;;3.00;2.90;;;15.10;65.80;;;;;;5083746;28;44107;-67
2023/12/02 00:19:56;;;;;;;2.90;2.80;;;15.20;65.40;;;;;;5081300;28;43891;-66
2023/12/02 00:22:24;;;;;;;3.00;2.90;;;15.30;64.80;;;;;;5079074;28;43367;-67
2023/12/02 00:24:52;;;;;;;2.47;2.47;;;15.30;64.70;;;;;;5082378;28;43472;-68
2023/12/02 00:27:20;;;;;;;2.70;2.70;;;15.30;64.80;;;;;;5081433;28;43771;-67
2023/12/02 00:29:50;;;;;;;2.73;2.63;;;15.20;64.90;;;;;;5081625;28;43468;-66
2023/12/02 00:32:18;;;;;;;3.00;2.90;;;15.20;64.90;;;;;;5081554;28;43545;-66
2023/12/02 00:34:56;;;;;;;2.50;2.50;;;15.20;65.00;;;;;;5078123;28;43440;-69
2023/12/02 00:37:25;;;;;;;2.57;2.47;;;15.20;65.10;;;;;;5078061;28;44142;-69
2023/12/02 00:39:53;;;;;;;2.70;2.60;;;15.20;65.20;;;;;;5077893;28;43375;-69
2023/12/02 00:42:21;;;;;;;2.70;2.50;;;15.10;65.20;;;;;;5078361;28;43463;-69
2023/12/02 00:44:51;;;;;;;2.53;2.53;;;15.10;65.10;;;;;;5076557;28;43442;-69
2023/12/02 00:47:19;;;;;;;2.70;2.60;;;15.10;65.30;;;;;;5077619;28;43919;-69
2023/12/02 00:49:47;;;;;;;2.73;2.63;;;15.10;65.40;;;;;;5076654;28;44711;-69
2023/12/02 00:52:15;;;;;;;2.40;2.40;;;15.10;65.40;;;;;;5077593;28;43461;-68
2023/12/02 00:54:44;;;;;;;2.50;2.40;;;15.00;65.30;;;;;;5077476;28;43487;-68
2023/12/02 00:57:12;;;;;;;2.37;2.37;;;15.00;65.20;;;;;;5076641;28;43619;-69
2023/12/02 00:59:40;;;;;;;2.47;2.37;;;15.10;65.30;;;;;;5076294;28;44415;-69
2023/12/02 01:02:10;;;;;;;2.60;2.60;;;15.00;65.30;;;;;;5076102;28;43501;-68
2023/12/02 01:04:38;;;;;;;2.63;2.63;;;15.00;65.30;;;;;;5078783;28;43416;-68
2023/12/02 01:07:06;;;;;;;2.50;2.50;;;15.00;65.40;;;;;;5076958;28;43962;-70
2023/12/02 01:09:34;;;;;;;2.90;2.80;;;15.00;65.50;;;;;;5078064;28;43469;-68
2023/12/02 01:12:03;;;;;;;2.37;2.30;;;15.10;65.60;;;;;;5078061;28;43406;-68
2023/12/02 01:14:31;;;;;;;2.70;2.60;;;15.10;65.30;;;;;;5096999;28;43787;-68
2023/12/02 01:16:59;;;;;;;2.30;2.30;;;15.20;64.80;;;;;;5080428;28;43607;-68
2023/12/02 01:19:28;;;;;;;2.30;2.30;;;15.20;64.50;;;;;;5081218;28;43525;-69
2023/12/02 01:21:59;;;;;;;2.20;2.20;;;15.20;64.60;;;;;;5074288;28;43533;-69
2023/12/02 01:24:28;;;;;;;2.50;2.50;;;15.20;64.70;;;;;;5072764;28;43492;-70
2023/12/02 01:26:56;;;;;;;2.53;2.53;;;15.20;64.80;;;;;;5069280;28;43933;-71
2023/12/02 01:29:24;;;;;;;2.23;2.23;;;15.10;64.70;;;;;;5068175;28;45374;-71
2023/12/02 01:31:52;;;;;;;2.40;2.40;;;15.10;64.80;;;;;;5069492;28;43453;-71
2023/12/02 01:34:20;;;;;;;2.70;2.60;;;15.10;64.90;;;;;;5068596;28;43389;-71
2023/12/02 01:36:49;;;;;;;2.30;2.30;;;15.10;65.00;;;;;;5068795;28;43950;-71
2023/12/02 01:39:17;;;;;;;2.30;2.30;;;15.10;65.00;;;;;;5069582;28;43488;-71
2023/12/02 01:41:45;;;;;;;2.30;2.30;;;15.10;65.10;;;;;;5069722;28;43434;-70
2023/12/02 01:44:14;;;;;;;2.43;2.43;;;15.10;65.10;;;;;;5067367;28;43494;-71
2023/12/02 01:46:42;;;;;;;2.50;2.40;;;15.00;65.10;;;;;;5069066;28;43582;-70
2023/12/02 01:49:10;;;;;;;2.27;2.27;;;15.00;65.00;;;;;;5066665;28;44449;-70
2023/12/02 01:51:38;;;;;;;2.10;2.10;;;15.10;65.10;;;;;;5068253;28;43485;-71
2023/12/02 01:54:08;;;;;;;2.13;2.13;;;15.00;65.10;;;;;;5068716;28;43443;-71
2023/12/02 01:56:36;;;;;;;2.20;2.20;;;15.10;65.20;;;;;;5065494;28;43595;-70
2023/12/02 01:59:15;;;;;;;2.57;2.43;;;15.00;65.10;;;;;;5067907;28;43501;-71
2023/12/02 02:01:43;;;;;;;2.53;2.53;;;15.00;65.10;;;;;;5068867;28;43403;-70
2023/12/02 02:04:11;;;;;;;2.50;2.50;;;15.00;66.00;;;;;;5065593;28;43932;-70
2023/12/02 02:06:39;;;;;;;2.50;2.40;;;15.00;65.40;;;;;;5068999;28;43975;-71
2023/12/02 02:09:08;;;;;;;2.43;2.43;;;15.10;65.20;;;;;;5067384;28;43539;-71
2023/12/02 02:11:36;;;;;;;2.43;2.37;;;15.20;64.60;;;;;;5069226;28;43395;-71
2023/12/02 02:14:04;;;;;;;2.30;2.30;;;15.30;64.40;;;;;;5069402;28;43375;-71
2023/12/02 02:16:32;;;;;;;2.03;2.03;;;15.30;64.50;;;;;;5068874;28;44132;-71
2023/12/02 02:19:00;;;;;;;2.13;2.13;;;15.20;64.50;;;;;;5068564;28;43407;-71
2023/12/02 02:21:30;;;;;;;2.30;2.30;;;15.20;64.60;;;;;;5068368;28;43440;-71
2023/12/02 02:23:58;;;;;;;2.37;2.37;;;15.10;64.80;;;;;;5068479;28;44172;-71
2023/12/02 02:26:26;;;;;;;1.90;1.90;;;15.10;64.60;;;;;;5068560;28;43782;-70
2023/12/02 02:28:54;;;;;;;2.67;2.57;;;15.10;64.70;;;;;;5068576;28;44082;-70
2023/12/02 02:31:22;;;;;;;2.20;2.20;;;15.10;64.80;;;;;;5068754;28;43481;-71
2023/12/02 02:33:50;;;;;;;2.10;2.10;;;15.10;64.80;;;;;;5069866;28;43427;-70
2023/12/02 02:36:18;;;;;;;2.10;2.10;;;15.10;65.00;;;;;;5067881;28;43614;-70
2023/12/02 02:38:47;;;;;;;2.20;2.20;;;15.00;64.80;;;;;;5067910;28;43540;-70
2023/12/02 02:41:15;;;;;;;2.20;2.20;;;15.10;65.10;;;;;;5067883;28;43455;-70
2023/12/02 02:43:43;;;;;;;2.10;2.10;;;15.10;65.00;;;;;;5069017;28;43961;-70
2023/12/02 02:46:11;;;;;;;2.10;2.10;;;15.10;65.00;;;;;;5068097;28;43603;-69
2023/12/02 02:48:39;;;;;;;2.13;2.13;;;15.10;65.00;;;;;;5068571;28;43405;-70
2023/12/02 02:51:08;;;;;;;2.10;2.10;;;15.00;65.00;;;;;;5067729;28;44003;-70
2023/12/02 02:53:36;;;;;;;2.30;2.30;;;15.00;65.00;;;;;;5070841;28;43466;-69
2023/12/02 02:56:06;;;;;;;2.10;2.10;;;15.00;65.10;;;;;;5079800;28;43555;-69
2023/12/02 02:58:36;;;;;;;2.50;2.50;;;15.00;65.10;;;;;;5079893;28;43520;-69
2023/12/02 03:01:04;;;;;;;2.10;2.10;;;15.00;65.20;;;;;;5080396;28;43366;-69
2023/12/02 03:03:32;;;;;;;2.20;2.20;;;15.00;65.20;;;;;;5080363;28;43350;-69
2023/12/02 03:06:00;;;;;;;2.20;2.20;;;15.10;64.90;;;;;;5079895;28;43923;-69
2023/12/02 03:08:28;;;;;;;2.47;2.47;;;15.20;64.40;;;;;;5079046;28;43446;-69
2023/12/02 03:10:56;;;;;;;2.13;2.13;;;15.20;64.30;;;;;;5078725;28;44628;-69
2023/12/02 03:13:26;;;;;;;2.10;2.10;;;15.20;64.50;;;;;;5079185;28;43461;-69
2023/12/02 03:15:54;;;;;;;2.10;2.10;;;15.10;64.40;;;;;;5079053;28;43707;-69
2023/12/02 03:18:23;;;;;;;2.37;2.37;;;15.10;64.50;;;;;;5079377;28;43387;-69
2023/12/02 03:20:51;;;;;;;4.20;2.50;;;15.10;64.80;;;;;;5079331;28;43462;-69
2023/12/02 03:23:19;;;;;;;2.27;2.27;;;15.10;64.60;;;;;;5079365;28;43353;-69
2023/12/02 03:25:47;;;;;;;2.23;2.13;;;15.10;64.60;;;;;;5079340;28;43677;-68
2023/12/02 03:28:15;;;;;;;2.13;2.13;;;15.10;64.80;;;;;;5078596;28;43403;-69
2023/12/02 03:30:45;;;;;;;2.30;2.23;;;15.10;64.70;;;;;;5079896;28;43379;-69
2023/12/02 03:33:13;;;;;;;2.47;2.40;;;15.00;64.80;;;;;;5078300;28;43419;-69
2023/12/02 03:35:41;;;;;;;2.43;2.33;;;15.00;64.90;;;;;;5076885;28;43621;-69
2023/12/02 03:38:09;;;;;;;2.30;2.30;;;15.00;65.00;;;;;;5078613;28;43351;-69
2023/12/02 03:40:37;;;;;;;2.20;2.20;;;15.00;65.10;;;;;;5078673;28;43411;-69
2023/12/02 03:43:05;;;;;;;2.37;2.37;;;15.10;65.00;;;;;;5075874;28;43477;-69
2023/12/02 03:45:33;;;;;;;2.30;2.20;;;15.20;64.50;;;;;;5076737;28;43620;-69
2023/12/02 03:48:03;;;;;;;2.27;2.27;;;15.20;64.10;;;;;;5079365;28;43386;-69
2023/12/02 03:50:31;;;;;;;2.20;2.20;;;15.20;64.10;;;;;;5078731;28;44808;-69
2023/12/02 03:53:00;;;;;;;2.10;2.10;;;15.20;64.20;;;;;;5078997;28;43550;-69
2023/12/02 03:55:31;;;;;;;2.43;2.43;;;15.10;64.20;;;;;;5078413;28;43594;-69
2023/12/02 03:57:59;;;;;;;2.33;2.33;;;15.10;64.40;;;;;;5078821;28;43426;-69
2023/12/02 04:00:27;;;;;;;2.40;2.30;;;15.10;64.30;;;;;;5077894;28;44305;-70
2023/12/02 04:02:55;;;;;;;2.47;2.47;;;15.10;64.50;;;;;;5081576;28;43620;-66
2023/12/02 04:05:24;;;;;;;1.97;1.97;;;15.10;64.60;;;;;;5080606;28;45693;-67
2023/12/02 04:07:52;;;;;;;2.20;2.20;;;15.10;64.70;;;;;;5080138;28;43865;-65
2023/12/02 04:10:21;;;;;;;1.80;1.80;;;15.00;64.60;;;;;;5081663;28;43562;-66
2023/12/02 04:12:49;;;;;;;2.17;2.17;;;15.10;64.90;;;;;;5099291;28;43354;-66
2023/12/02 04:15:17;;;;;;;2.00;2.00;;;15.00;64.80;;;;;;5082469;28;43787;-66
2023/12/02 04:17:45;;;;;;;2.10;2.10;;;15.00;64.70;;;;;;5082100;28;43402;-67
2023/12/02 04:20:15;;;;;;;2.20;2.20;;;15.00;64.70;;;;;;5078635;28;43407;-66
2023/12/02 04:22:44;;;;;;;2.00;2.00;;;15.00;64.80;;;;;;5082181;28;43941;-66
2023/12/02 04:25:12;;;;;;;2.27;2.20;;;15.00;64.80;;;;;;5080482;28;43651;-65
2023/12/02 04:27:41;;;;;;;2.17;2.17;;;15.10;64.90;;;;;;5082655;28;43376;-67
2023/12/02 04:30:09;;;;;;;1.87;1.87;;;15.00;64.90;;;;;;5082028;28;43479;-67
2023/12/02 04:32:37;;;;;;;2.00;2.00;;;15.10;65.00;;;;;;5082536;28;43407;-67
2023/12/02 04:35:06;;;;;;;2.07;2.07;;;15.10;65.00;;;;;;5080491;28;43598;-67
2023/12/02 04:37:34;;;;;;;2.10;2.10;;;15.10;64.90;;;;;;5083033;28;43344;-67
2023/12/02 04:40:10;;;;;;;2.77;2.67;;;15.20;64.60;;;;;;5081522;28;43399;-66
2023/12/02 04:42:39;;;;;;;2.40;2.30;;;15.20;64.10;;;;;;5080524;28;43865;-67
2023/12/02 04:45:08;;;;;;;2.33;2.13;;;15.30;64.10;;;;;;5082080;28;43760;-66
2023/12/02 04:47:36;;;;;;;2.30;2.10;;;15.30;64.20;;;;;;5081079;28;43453;-67
2023/12/02 04:50:05;;;;;;;2.70;2.60;;;15.30;64.30;;;;;;5082371;28;43403;-67
2023/12/02 04:52:33;;;;;;;2.93;2.30;;;15.20;64.20;;;;;;5082364;28;43484;-68
2023/12/02 04:55:01;;;;;;;2.10;2.10;;;15.20;64.20;;;;;;5063009;28;43611;-71
2023/12/02 04:57:30;;;;;;;2.00;1.90;;;15.20;64.20;;;;;;5068412;28;43446;-70
2023/12/02 04:59:58;;;;;;;1.83;1.83;;;15.20;64.30;;;;;;5065095;28;43393;-70
2023/12/02 05:02:27;;;;;;;2.10;2.10;;;15.20;64.20;;;;;;5062232;28;43548;-70
2023/12/02 05:04:55;;;;;;;2.20;2.10;;;15.20;64.30;;;;;;5064469;28;46064;-70
2023/12/02 05:07:23;;;;;;;2.07;2.07;;;15.20;64.40;;;;;;5066098;28;43439;-70
2023/12/02 05:09:51;;;;;;;1.90;1.90;;;15.10;64.40;;;;;;5060117;28;43474;-70
2023/12/02 05:12:19;;;;;;;2.30;2.30;;;15.10;64.40;;;;;;5066573;28;43442;-71
2023/12/02 05:14:49;;;;;;;2.20;2.10;;;15.10;64.30;;;;;;5076063;28;45578;-70
2023/12/02 05:17:17;;;;;;;2.23;2.10;;;15.10;64.50;;;;;;5077483;28;43448;-69
2023/12/02 05:19:46;;;;;;;2.10;2.10;;;15.10;64.40;;;;;;5078868;28;43449;-70
2023/12/02 05:22:15;;;;;;;2.30;2.20;;;15.10;64.50;;;;;;5076819;28;43535;-69
2023/12/02 05:24:43;;;;;;;2.23;2.23;;;15.10;64.40;;;;;;5077847;28;43611;-68
2023/12/02 05:27:11;;;;;;;2.37;2.27;;;15.10;64.50;;;;;;5078244;28;43494;-69
2023/12/02 05:29:40;;;;;;;2.13;2.13;;;15.10;64.50;;;;;;5077963;28;43905;-69
2023/12/02 05:32:09;;;;;;;2.30;2.20;;;15.10;64.50;;;;;;5078410;28;43376;-69
2023/12/02 05:34:38;;;;;;;2.20;2.20;;;15.20;64.50;;;;;;5076311;28;44441;-69
2023/12/02 05:37:06;;;;;;;2.23;2.23;;;15.20;64.20;;;;;;5085741;28;43961;-70
2023/12/02 05:39:34;;;;;;;2.50;2.40;;;15.30;63.70;;;;;;5080517;28;43517;-69
2023/12/02 05:42:03;;;;;;;2.00;2.00;;;15.40;63.60;;;;;;5084434;28;43399;-69
2023/12/02 05:44:31;;;;;;;2.00;2.00;;;15.30;63.50;;;;;;5086203;28;43839;-68
2023/12/02 05:46:59;;;;;;;2.30;2.30;;;15.30;63.70;;;;;;5076616;28;45147;-69
2023/12/02 05:49:28;;;;;;;2.17;2.17;;;15.30;63.70;;;;;;5075799;28;43438;-69
2023/12/02 05:51:57;;;;;;;2.10;2.10;;;15.30;63.90;;;;;;5078473;28;43881;-69
2023/12/02 05:54:25;;;;;;;2.20;2.20;;;15.20;63.80;;;;;;5077330;28;43665;-70
2023/12/02 05:56:54;;;;;;;2.10;2.10;;;15.20;63.80;;;;;;5078389;28;43370;-70
2023/12/02 05:59:22;;;;;;;2.10;2.10;;;15.20;63.90;;;;;;5094530;27;43337;-69
2023/12/02 06:01:51;;;;;;;2.40;2.30;;;15.20;64.00;;;;;;5079908;28;43421;-70
2023/12/02 06:04:19;;;;;;;2.00;2.00;;;15.20;64.10;;;;;;5082296;28;43619;-67
2023/12/02 06:06:48;;;;;;;2.07;2.07;;;15.20;64.20;;;;;;5084417;28;43444;-67
2023/12/02 06:09:16;;;;;;;2.23;2.23;;;15.20;64.30;;;;;;5083631;28;43376;-67
2023/12/02 06:11:44;;;;;;;2.20;2.20;;;15.10;64.10;;;;;;5084588;28;43449;-67
2023/12/02 06:14:12;;;;;;;2.00;2.00;;;15.10;64.20;;;;;;5084391;28;43603;-67
2023/12/02 06:16:40;;;;;;;2.57;2.47;;;15.20;64.40;;;;;;5083887;28;43469;-67
2023/12/02 06:19:08;;;;;;;1.90;1.90;;;15.10;64.30;;;;;;5084946;28;44060;-66
2023/12/02 06:21:37;;;;;;;2.10;2.10;;;15.10;64.30;;;;;;5084195;28;43460;-67
2023/12/02 06:24:07;;;;;;;2.37;2.33;;;15.10;64.40;;;;;;5082383;28;43779;-69
2023/12/02 06:26:35;;;;;;;2.03;2.03;;;15.10;64.30;;;;;;5080543;28;43422;-69
2023/12/02 06:29:04;;;;;;;2.30;2.20;;;15.10;64.30;;;;;;5080718;28;43441;-69
2023/12/02 06:31:33;;;;;;;2.23;2.23;;;15.20;64.40;;;;;;5080420;28;43595;-69
2023/12/02 06:34:01;;;;;;;1.83;1.83;;;15.20;63.90;;;;;;5079303;28;43606;-69
2023/12/02 06:36:29;;;;;;;2.23;2.23;;;15.30;63.90;;;;;;5093969;28;43651;-69
2023/12/02 06:38:57;;;;;;;2.10;2.10;;;15.30;63.90;;;;;;5081443;28;43514;-69
2023/12/02 06:41:29;;;;;;;1.87;1.87;;;15.30;64.00;;;;;;5077587;28;43527;-69
2023/12/02 06:43:57;;;;;;;2.03;2.03;;;15.20;63.90;;;;;;5080827;28;43934;-69
2023/12/02 06:46:25;;;;;;;2.33;2.33;;;15.20;64.00;;;;;;5080605;28;43404;-68
2023/12/02 06:48:53;;;;;;;2.00;2.00;;;15.20;63.90;;;;;;5080192;28;43376;-69
2023/12/02 06:51:23;;;;;;;2.00;2.00;;;15.20;64.00;;;;;;5082047;28;43439;-69
2023/12/02 06:53:51;;;;;;;2.17;2.17;;;15.20;64.00;;;;;;5080815;28;44781;-68
2023/12/02 06:56:19;;;;;;;2.10;2.10;;;15.20;64.00;;;;;;5080221;28;43386;-69
2023/12/02 06:58:49;;;;;;;1.83;1.83;;;15.20;64.10;;;;;;5079891;28;43959;-69
2023/12/02 07:01:25;;;;;;;2.20;2.20;;;15.20;64.10;;;;;;5079067;28;43481;-68
2023/12/02 07:03:54;;;;;;;2.30;2.30;;;15.20;64.10;;;;;;5080639;28;43995;-69
2023/12/02 07:06:22;;;;;;;2.10;2.10;;;15.20;64.20;;;;;;5096021;28;44379;-69
2023/12/02 07:08:50;;;;;;;2.37;2.37;;;15.20;64.10;;;;;;5079201;28;43416;-69
2023/12/02 07:11:20;;;;;;;2.20;2.20;;;15.30;63.70;;;;;;5079985;28;43374;-68
2023/12/02 07:13:49;;;;;;;2.10;2.10;;;15.40;63.60;;;;;;5080793;28;43644;-66
2023/12/02 07:16:17;;;;;;;2.23;2.17;;;15.30;63.50;;;;;;5082645;28;43390;-67
2023/12/02 07:18:45;;;;;;;1.77;1.77;;;15.30;63.50;;;;;;5083370;28;43474;-66
2023/12/02 07:21:13;;;;;;;2.07;2.07;;;15.30;63.70;;;;;;5082255;28;43593;-66
2023/12/02 07:23:42;;;;;;;2.00;2.00;;;15.30;63.60;;;;;;5082476;28;43824;-67
2023/12/02 07:26:10;;;;;;;2.00;2.00;;;15.20;63.70;;;;;;5082629;28;43467;-66
2023/12/02 07:28:38;;;;;;;2.13;2.13;;;15.20;63.60;;;;;;5082891;28;43469;-65
2023/12/02 07:31:12;;;;;;;1.80;1.80;;;15.20;63.80;;;;;;5078294;28;43511;-67
2023/12/02 07:33:40;;;;;;;1.90;1.90;;;15.20;63.80;;;;;;5076208;28;43963;-70
2023/12/02 07:36:09;;;;;;;2.30;2.30;;;15.20;63.90;;;;;;5067552;28;43895;-70
2023/12/02 07:38:38;;;;;;;1.90;1.90;;;15.20;64.00;;;;;;5063340;28;44016;-70
2023/12/02 07:41:07;;;;;;;2.37;2.37;;;15.20;64.00;;;;;;5068628;28;43707;-70
2023/12/02 07:43:35;;;;;;;2.20;2.10;;;15.10;63.90;;;;;;5063674;28;45720;-70
2023/12/02 07:46:03;;;;;;;2.10;2.10;;;15.20;64.00;;;;;;5074411;28;43534;-70
2023/12/02 07:48:33;;;;;;;1.73;1.73;;;15.20;64.10;;;;;;5071519;28;43424;-70
2023/12/02 07:51:03;;;;;;;1.80;1.80;;;15.20;64.10;;;;;;5076722;28;43399;-70
2023/12/02 07:53:31;;;;;;;1.90;1.90;;;15.20;64.10;;;;;;5065200;28;43835;-70
2023/12/02 07:55:59;;;;;;;1.97;1.97;;;15.10;64.00;;;;;;5063803;28;43433;-70
2023/12/02 07:58:27;;;;;;;2.20;2.20;;;15.10;64.10;;;;;;5066191;28;43495;-70
2023/12/02 08:00:56;;;;;;;2.30;2.30;;;15.10;64.10;;;;;;5067558;28;43488;-70
2023/12/02 08:03:24;;;;;;;1.77;1.77;;;15.20;64.10;;;;;;5067283;28;43615;-70
2023/12/02 08:05:54;;;;;;;3.33;1.90;;;15.20;63.90;;;;;;5066853;28;43492;-70
2023/12/02 08:08:22;;;;;;;2.17;2.17;;;15.30;63.30;;;;;;5067134;28;43391;-70
2023/12/02 08:10:50;;;;;;;1.90;1.90;;;15.40;63.30;;;;;;5067356;28;43420;-70
2023/12/02 08:13:21;;;;;;;1.87;1.87;;;15.30;63.30;;;;;;5067512;28;43848;-70
2023/12/02 08:15:49;;;;;;;1.90;1.90;;;15.40;63.60;;;;;;5066149;28;43441;-70
2023/12/02 08:18:18;;;;;;;2.00;2.00;;;15.30;63.50;;;;;;5067194;28;43451;-70
2023/12/02 08:20:47;;;;;;;2.00;2.00;;;15.30;63.50;;;;;;5066802;28;43479;-70
2023/12/02 08:23:16;;;;;;;1.83;1.83;;;15.30;64.30;;;;;;5065325;28;44039;-70
2023/12/02 08:25:44;;;;;;;1.87;1.87;;;15.30;63.70;;;;;;5066610;28;43573;-70
2023/12/02 08:28:13;;;;;;;1.87;1.77;;;15.20;64.40;;;;;;5063963;28;43952;-70
2023/12/02 08:30:40;;;;;;;2.17;2.17;;;15.20;63.80;;;;;;5067705;28;43383;-70
2023/12/02 08:33:08;;;;;;;2.10;2.10;;;15.20;63.90;;;;;;5063127;28;43591;-70
2023/12/02 08:35:36;;;;;;;2.00;2.00;;;15.20;64.00;;;;;;5064311;28;43414;-70
2023/12/02 08:38:04;;;;;;;1.93;1.93;;;15.20;64.00;;;;;;5066709;28;43364;-70
2023/12/02 08:40:34;;;;;;;1.60;1.60;;;15.20;64.00;;;;;;5067183;28;43474;-69
2023/12/02 08:43:02;;;;;;;1.70;1.70;;;15.20;64.00;;;;;;5065864;28;43673;-70
2023/12/02 08:45:30;;;;;;;1.90;1.90;;;15.20;64.00;;;;;;5066010;28;43437;-70
2023/12/02 08:47:58;;;;;;;1.93;1.93;;;15.20;64.00;;;;;;5067086;28;43466;-70
2023/12/02 08:50:26;;;;;;;1.93;1.93;;;15.20;64.10;;;;;;5066296;28;43568;-70
2023/12/02 08:52:54;;;;;;;1.93;1.93;;;15.10;64.00;;;;;;5066635;28;43555;-70
2023/12/02 08:55:22;;;;;;;1.97;1.97;;;15.10;64.10;;;;;;5065127;28;43409;-70
2023/12/02 08:57:51;;;;;;;2.37;2.20;;;15.10;64.10;;;;;;5067041;28;43396;-70
2023/12/02 09:00:20;;;;;;;1.90;1.90;;;15.20;64.10;;;;;;5064668;28;43532;-70
2023/12/02 09:02:48;;;;;;;2.00;2.00;;;15.30;63.70;;;;;;5066063;28;43615;-70
2023/12/02 09:05:16;;;;;;;2.30;2.30;;;15.30;63.30;;;;;;5066145;28;43558;-69
2023/12/02 09:07:44;;;;;;;1.67;1.67;;;15.40;63.40;;;;;;5065972;28;44050;-70
2023/12/02 09:10:12;;;;;;;2.00;2.00;;;15.30;63.40;;;;;;5068079;28;43640;-69
2023/12/02 09:12:39;;;;;;;2.20;2.20;;;15.30;63.50;;;;;;5077566;27;43619;-69
2023/12/02 09:15:29;;;;;;;2.10;2.10;;;15.30;63.50;;;;;;5071553;27;43378;-69
2023/12/02 09:18:13;;;;;;;1.70;1.70;;;15.30;63.50;;;;;;5071772;28;43446;-70
2023/12/02 09:20:45;;;;;;;2.10;2.10;;;15.30;64.30;;;;;;5064843;28;43479;-69
2023/12/02 09:23:15;;;;;;;2.00;2.00;;;15.30;63.70;;;;;;5065444;28;43813;-69
2023/12/02 09:25:43;;;;;;;2.10;2.10;;;15.20;63.70;;;;;;5066141;28;44092;-70
2023/12/02 09:28:33;;;;;;;2.37;2.27;;;15.20;63.80;;;;;;5066477;28;43446;-70
2023/12/02 09:31:05;;;;;;;2.90;2.70;;;15.20;63.80;;;;;;5063598;28;43883;-70
2023/12/02 09:33:37;;;;;;;4.43;3.00;;;15.20;63.80;;;;;;5067982;28;43524;-70
2023/12/02 09:36:07;;;;;;;4.33;3.37;;;15.20;63.80;;;;;;5068643;28;43463;-70
2023/12/02 09:38:35;;;;;;;6.37;4.23;;;15.20;64.00;;;;;;5068776;28;43453;-70
2023/12/02 09:41:29;;;;;;;6.63;4.00;;;15.20;63.90;;;;;;5069908;28;43480;-70
2023/12/02 09:44:14;;;;;;;8.27;4.50;;;15.20;63.90;;;;;;5067736;28;43604;-71
2023/12/02 09:46:51;;;;;;;11.53;5.30;;;15.20;64.00;;;;;;5069578;28;43556;-70
2023/12/02 09:49:45;;;;;;;13.40;5.70;;;15.20;64.10;;;;;;5069467;28;43518;-71
2023/12/02 09:52:25;;;;;;;23.00;8.10;;;15.10;63.90;;;;;;5053791;28;43359;-71
2023/12/02 09:54:57;;;;;;;22.33;8.17;;;15.10;62.90;;;;;;5069202;28;43869;-68
2023/12/02 09:57:48;;;;;;;20.00;7.50;;;15.20;62.80;;;;;;5069358;28;44422;-70
2023/12/02 10:00:22;;;;;;;18.40;6.90;;;15.30;62.70;;;;;;5068732;28;43432;-70
2023/12/02 10:03:04;;;;;;;15.13;6.60;;;15.30;62.80;;;;;;5067340;28;43395;-69
2023/12/02 10:05:48;;;;;;;13.03;6.50;;;15.30;63.00;;;;;;5069819;28;43602;-69
2023/12/02 10:08:20;;;;;;;14.53;6.63;;;15.30;63.20;;;;;;5069614;28;43427;-69
2023/12/02 10:10:54;;;;;;;17.67;7.27;;;15.30;63.20;;;;;;5069408;28;43387;-69
2023/12/02 10:13:24;;;;;;;11.37;6.50;;;15.20;63.10;;;;;;5069471;28;43422;-69
2023/12/02 10:15:55;;;;;;;14.70;6.73;;;15.20;63.40;;;;;;5067857;28;43705;-70
2023/12/02 10:18:24;;;;;;;11.20;6.00;;;15.20;63.40;;;;;;5068617;28;43547;-70
2023/12/02 10:20:55;;;;;;;12.63;6.50;;;15.20;63.50;;;;;;5068495;28;43445;-70
2023/12/02 10:23:25;;;;;;;11.00;5.97;;;15.20;63.50;;;;;;5069186;28;43464;-69
2023/12/02 10:26:00;;;;;;;10.63;6.00;;;15.20;63.50;;;;;;5068477;28;43948;-70
2023/12/02 10:28:32;;;;;;;9.93;6.27;;;15.20;63.70;;;;;;5068346;28;43441;-70
2023/12/02 10:31:01;;;;;;;13.47;5.80;;;15.20;63.60;;;;;;5068282;28;43400;-69
2023/12/02 10:33:36;;;;;;;9.20;5.67;;;15.10;63.70;;;;;;5069326;28;43412;-69
2023/12/02 10:36:05;;;;;;;9.80;5.80;;;15.10;63.70;;;;;;5067887;28;43622;-69
2023/12/02 10:38:38;;;;;;;10.00;5.50;;;15.10;63.70;;;;;;5068488;28;43432;-69
2023/12/02 10:41:13;;;;;;;10.13;5.73;;;15.10;63.70;;;;;;5068285;28;43414;-70
2023/12/02 10:43:42;;;;;;;12.00;6.33;;;15.10;63.80;;;;;;5069201;28;43447;-70
2023/12/02 10:46:13;;;;;;;8.50;6.20;;;15.10;63.80;;;;;;5065844;27;43882;-69
2023/12/02 10:48:42;;;;;;;8.63;6.00;;;15.10;63.90;;;;;;5068431;28;43444;-70
2023/12/02 10:51:12;;;;;;;9.63;5.27;;;15.10;63.70;;;;;;5068146;28;43447;-70
2023/12/02 10:53:40;;;;;;;7.37;4.97;;;15.10;63.50;;;;;;5067600;28;43340;-69
2023/12/02 10:56:15;;;;;;;9.53;5.90;;;15.20;63.50;;;;;;5067887;28;43598;-69
2023/12/02 10:58:44;;;;;;;9.80;5.50;;;15.30;63.40;;;;;;5067304;28;45061;-69
2023/12/02 11:01:12;;;;;;;8.37;5.40;;;15.40;62.90;;;;;;5068232;28;43466;-69
2023/12/02 11:03:46;;;;;;;6.57;4.90;;;15.60;62.60;;;;;;5073140;28;44907;-69
2023/12/02 11:06:19;;;;;;;7.83;5.00;;;15.80;61.90;;;;;;5079996;28;43864;-70
2023/12/02 11:08:49;;;;;;;7.77;5.17;;;15.90;61.20;;;;;;5079099;28;43417;-69
2023/12/02 11:11:21;;;;;;;7.53;5.03;;;16.10;60.70;;;;;;5079155;28;43448;-69
2023/12/02 11:13:49;;;;;;;12.67;5.60;;;16.20;60.10;;;;;;5079492;28;43430;-69
2023/12/02 11:16:22;;;;;;;8.50;6.03;;;16.20;52.60;;;;;;5082569;28;43868;-69
2023/12/02 11:19:01;;;;;;;5.70;5.10;;;16.20;52.50;;;;;;5085992;28;43423;-69
2023/12/02 11:21:34;;;;;;;6.40;5.00;;;16.30;54.90;;;;;;5079395;28;43478;-69
2023/12/02 11:24:06;;;;;;;7.50;5.37;;;16.30;56.10;;;;;;5086594;28;43426;-69
2023/12/02 11:26:36;;;;;;;5.33;4.80;;;16.20;57.20;;;;;;5074273;28;45559;-69
2023/12/02 11:29:15;;;;;;;6.37;5.10;;;16.10;58.00;;;;;;5074164;28;43546;-69
2023/12/02 11:31:58;;;;;;;5.93;4.70;;;16.00;58.80;;;;;;5080636;28;44295;-69
2023/12/02 11:34:33;;;;;;;5.03;4.53;;;15.80;59.40;;;;;;5085490;28;43427;-69
2023/12/02 11:37:06;;;;;;;5.17;4.60;;;15.70;59.80;;;;;;5078345;28;43852;-69
2023/12/02 11:39:38;;;;;;;5.50;5.00;;;15.60;60.10;;;;;;5075853;28;43414;-69
2023/12/02 11:42:12;;;;;;;5.13;4.60;;;15.60;60.50;;;;;;5077337;28;44065;-68
2023/12/02 11:44:55;;;;;;;5.23;4.73;;;15.50;60.60;;;;;;5078604;28;43401;-68
2023/12/02 11:47:31;;;;;;;5.63;4.27;;;15.50;61.00;;;;;;5077010;28;45367;-69
2023/12/02 11:50:07;;;;;;;5.43;4.47;;;15.40;61.30;;;;;;5079317;28;43477;-68
2023/12/02 11:52:41;;;;;;;5.70;4.70;;;15.40;61.50;;;;;;5077741;28;43870;-68
2023/12/02 11:55:13;;;;;;;5.17;4.73;;;15.40;61.70;;;;;;5081844;28;43442;-65
2023/12/02 11:57:47;;;;;;;5.00;4.23;;;15.30;61.80;;;;;;5079915;28;45668;-67
2023/12/02 12:00:18;;;;;;;4.50;4.20;;;15.30;61.90;;;;;;5080466;28;43395;-66
2023/12/02 12:03:04;;;;;;;4.73;4.20;;;15.30;62.00;;;;;;5080971;28;43379;-67
2023/12/02 12:05:40;;;;;;;5.13;4.20;;;15.30;62.30;;;;;;5082102;28;43414;-68
2023/12/02 12:08:12;;;;;;;5.37;4.80;;;15.30;62.40;;;;;;5080923;28;44314;-67
2023/12/02 12:10:41;;;;;;;6.30;4.23;;;15.30;62.60;;;;;;5079036;28;43814;-67
2023/12/02 12:13:11;;;;;;;4.70;4.30;;;15.30;62.80;;;;;;5064556;28;44376;-69
2023/12/02 12:15:39;;;;;;;4.90;4.40;;;15.40;62.80;;;;;;5073207;28;43470;-69
2023/12/02 12:18:08;;;;;;;5.30;4.60;;;15.50;62.20;;;;;;5073393;28;44076;-69
2023/12/02 12:20:38;;;;;;;4.60;4.20;;;15.60;62.00;;;;;;5073240;28;43466;-69
2023/12/02 12:23:07;;;;;;;4.40;4.00;;;15.60;62.10;;;;;;5074617;28;43471;-68
2023/12/02 12:25:36;;;;;;;4.60;3.90;;;15.50;62.20;;;;;;5071741;28;43465;-69
2023/12/02 12:28:06;;;;;;;4.47;4.07;;;15.50;62.50;;;;;;5072069;28;44881;-69
2023/12/02 12:30:44;;;;;;;4.80;3.87;;;15.50;62.60;;;;;;5071405;28;43490;-69
2023/12/02 12:33:13;;;;;;;4.60;4.23;;;15.50;62.70;;;;;;5074068;28;43437;-68
2023/12/02 12:35:43;;;;;;;4.23;3.83;;;15.40;62.70;;;;;;5073656;28;43502;-67
2023/12/02 12:38:11;;;;;;;5.50;4.20;;;15.40;62.90;;;;;;5074430;28;43905;-68
2023/12/02 12:40:41;;;;;;;4.93;3.83;;;15.40;63.20;;;;;;5070009;28;43552;-68
2023/12/02 12:43:09;;;;;;;5.07;4.27;;;15.30;64.00;;;;;;5068049;28;44137;-69
2023/12/02 12:45:39;;;;;;;7.07;5.17;;;15.30;63.50;;;;;;5069510;28;43467;-69
2023/12/02 12:48:09;;;;;;;8.57;5.63;;;15.30;63.60;;;;;;5071653;28;43667;-69
2023/12/02 12:50:38;;;;;;;6.77;4.93;;;15.30;64.00;;;;;;5066789;28;43546;-69
2023/12/02 12:53:10;;;;;;;6.30;4.70;;;15.30;64.00;;;;;;5066848;28;43399;-69
2023/12/02 12:55:38;;;;;;;5.90;5.30;;;15.30;63.70;;;;;;5068252;28;43609;-68
2023/12/02 12:58:07;;;;;;;6.17;5.10;;;15.30;63.70;;;;;;5070897;28;44057;-68